sensor_id;sensor_type;location;lat;lon;timestamp;temperature;humidity
3542;DHT22;1785;47.388;8.538;2022-11-13T00:00:55;10.50;99.90
3542;DHT22;1785;47.388;8.538;2022-11-13T00:03:21;10.40;99.90
3542;DHT22;1785;47.388;8.538;2022-11-13T00:05:57;10.50;99.90
3542;DHT22;1785;47.388;8.538;2022-11-13T00:08:24;10.50;99.90
3542;DHT22;1785;47.388;8.538;2022-11-13T00:10:51;10.40;99.90
3542;DHT22;1785;47.388;8.538;2022-11-13T00:13:17;10.50;99.90
3542;DHT22;1785;47.388;8.538;2022-11-13T00:15:44;10.30;99.90
3542;DHT22;1785;47.388;8.538;2022-11-13T00:18:21;10.30;99.90
3542;DHT22;1785;47.388;8.538;2022-11-13T00:20:48;10.30;99.90
3542;DHT22;1785;47.388;8.538;2022-11-13T00:23:14;10.40;99.90
3542;DHT22;1785;47.388;8.538;2022-11-13T00:25:41;10.30;99.90
3542;DHT22;1785;47.388;8.538;2022-11-13T00:28:09;10.20;99.90
3542;DHT22;1785;47.388;8.538;2022-11-13T00:30:35;10.20;99.90
3542;DHT22;1785;47.388;8.538;2022-11-13T00:33:02;10.20;99.90
3542;DHT22;1785;47.388;8.538;2022-11-13T00:35:31;10.30;99.90
3542;DHT22;1785;47.388;8.538;2022-11-13T00:37:58;10.40;99.90
3542;DHT22;1785;47.388;8.538;2022-11-13T00:40:26;10.50;99.90
3542;DHT22;1785;47.388;8.538;2022-11-13T00:42:52;10.50;99.90
3542;DHT22;1785;47.388;8.538;2022-11-13T00:45:19;10.60;99.90
3542;DHT22;1785;47.388;8.538;2022-11-13T00:47:45;10.60;99.90
3542;DHT22;1785;47.388;8.538;2022-11-13T00:50:12;10.60;99.90
3542;DHT22;1785;47.388;8.538;2022-11-13T00:52:38;10.60;99.90
3542;DHT22;1785;47.388;8.538;2022-11-13T00:55:06;10.60;99.90
3542;DHT22;1785;47.388;8.538;2022-11-13T00:57:33;10.70;99.90
3542;DHT22;1785;47.388;8.538;2022-11-13T00:59:59;10.50;99.90
3542;DHT22;1785;47.388;8.538;2022-11-13T01:02:27;10.50;99.90
3542;DHT22;1785;47.388;8.538;2022-11-13T01:04:53;10.60;99.90
3542;DHT22;1785;47.388;8.538;2022-11-13T01:07:20;10.60;99.90
3542;DHT22;1785;47.388;8.538;2022-11-13T01:09:48;10.50;99.90
3542;DHT22;1785;47.388;8.538;2022-11-13T01:12:16;10.60;99.90
3542;DHT22;1785;47.388;8.538;2022-11-13T01:14:42;10.70;99.90
3542;DHT22;1785;47.388;8.538;2022-11-13T01:17:08;10.80;99.90
3542;DHT22;1785;47.388;8.538;2022-11-13T01:19:36;10.70;99.90
3542;DHT22;1785;47.388;8.538;2022-11-13T01:22:02;10.50;99.90
3542;DHT22;1785;47.388;8.538;2022-11-13T01:24:30;10.50;99.90
3542;DHT22;1785;47.388;8.538;2022-11-13T01:26:57;10.50;99.90
3542;DHT22;1785;47.388;8.538;2022-11-13T01:29:24;10.40;99.90
3542;DHT22;1785;47.388;8.538;2022-11-13T01:31:51;10.40;99.90
3542;DHT22;1785;47.388;8.538;2022-11-13T01:34:18;10.50;99.90
3542;DHT22;1785;47.388;8.538;2022-11-13T01:36:44;10.50;99.90
3542;DHT22;1785;47.388;8.538;2022-11-13T01:39:12;10.60;99.90
3542;DHT22;1785;47.388;8.538;2022-11-13T01:41:38;10.60;99.90
3542;DHT22;1785;47.388;8.538;2022-11-13T01:44:10;10.70;99.90
3542;DHT22;1785;47.388;8.538;2022-11-13T01:46:40;10.80;99.90
3542;DHT22;1785;47.388;8.538;2022-11-13T01:49:22;10.90;99.90
3542;DHT22;1785;47.388;8.538;2022-11-13T01:51:53;11.00;99.90
3542;DHT22;1785;47.388;8.538;2022-11-13T01:54:25;11.00;99.90
3542;DHT22;1785;47.388;8.538;2022-11-13T01:56:53;10.90;99.90
3542;DHT22;1785;47.388;8.538;2022-11-13T01:59:23;10.80;99.90
3542;DHT22;1785;47.388;8.538;2022-11-13T02:01:52;10.70;99.90
3542;DHT22;1785;47.388;8.538;2022-11-13T02:04:19;10.70;99.90
3542;DHT22;1785;47.388;8.538;2022-11-13T02:06:48;10.80;99.90
3542;DHT22;1785;47.388;8.538;2022-11-13T02:09:19;10.90;99.90
3542;DHT22;1785;47.388;8.538;2022-11-13T02:11:46;10.90;99.90
3542;DHT22;1785;47.388;8.538;2022-11-13T02:14:14;10.90;99.90
3542;DHT22;1785;47.388;8.538;2022-11-13T02:16:42;10.90;99.90
3542;DHT22;1785;47.388;8.538;2022-11-13T02:19:16;10.80;99.90
3542;DHT22;1785;47.388;8.538;2022-11-13T02:21:49;10.60;99.90
3542;DHT22;1785;47.388;8.538;2022-11-13T02:24:24;10.50;99.90
3542;DHT22;1785;47.388;8.538;2022-11-13T02:26:53;10.60;99.90
3542;DHT22;1785;47.388;8.538;2022-11-13T02:29:21;10.60;99.90
3542;DHT22;1785;47.388;8.538;2022-11-13T02:31:48;10.50;99.90
3542;DHT22;1785;47.388;8.538;2022-11-13T02:34:14;10.50;99.90
3542;DHT22;1785;47.388;8.538;2022-11-13T02:36:42;10.40;99.90
3542;DHT22;1785;47.388;8.538;2022-11-13T02:39:10;10.40;99.90
3542;DHT22;1785;47.388;8.538;2022-11-13T02:41:38;10.40;99.90
3542;DHT22;1785;47.388;8.538;2022-11-13T02:44:05;10.50;99.90
3542;DHT22;1785;47.388;8.538;2022-11-13T02:46:32;10.40;99.90
3542;DHT22;1785;47.388;8.538;2022-11-13T02:49:00;10.50;99.90
3542;DHT22;1785;47.388;8.538;2022-11-13T02:51:27;10.60;99.90
3542;DHT22;1785;47.388;8.538;2022-11-13T02:53:54;10.70;99.90
3542;DHT22;1785;47.388;8.538;2022-11-13T02:56:21;10.50;99.90
3542;DHT22;1785;47.388;8.538;2022-11-13T02:58:49;10.80;99.90
3542;DHT22;1785;47.388;8.538;2022-11-13T03:01:15;10.60;99.90
3542;DHT22;1785;47.388;8.538;2022-11-13T03:03:42;10.50;99.90
3542;DHT22;1785;47.388;8.538;2022-11-13T03:06:09;10.50;99.90
3542;DHT22;1785;47.388;8.538;2022-11-13T03:08:35;10.60;99.90
3542;DHT22;1785;47.388;8.538;2022-11-13T03:11:07;10.70;99.90
3542;DHT22;1785;47.388;8.538;2022-11-13T03:13:34;10.80;99.90
3542;DHT22;1785;47.388;8.538;2022-11-13T03:16:06;10.70;99.90
3542;DHT22;1785;47.388;8.538;2022-11-13T03:18:33;10.60;99.90
3542;DHT22;1785;47.388;8.538;2022-11-13T03:21:05;10.60;99.90
3542;DHT22;1785;47.388;8.538;2022-11-13T03:23:32;10.70;99.90
3542;DHT22;1785;47.388;8.538;2022-11-13T03:26:02;10.60;99.90
3542;DHT22;1785;47.388;8.538;2022-11-13T03:28:28;10.50;99.90
3542;DHT22;1785;47.388;8.538;2022-11-13T03:30:55;10.30;99.90
3542;DHT22;1785;47.388;8.538;2022-11-13T03:33:23;10.40;99.90
3542;DHT22;1785;47.388;8.538;2022-11-13T03:35:49;10.40;99.90
3542;DHT22;1785;47.388;8.538;2022-11-13T03:38:16;10.30;99.90
3542;DHT22;1785;47.388;8.538;2022-11-13T03:40:43;10.30;99.90
3542;DHT22;1785;47.388;8.538;2022-11-13T03:43:09;10.20;99.90
3542;DHT22;1785;47.388;8.538;2022-11-13T03:45:36;10.30;99.90
3542;DHT22;1785;47.388;8.538;2022-11-13T03:48:03;10.30;99.90
3542;DHT22;1785;47.388;8.538;2022-11-13T03:50:30;10.20;99.90
3542;DHT22;1785;47.388;8.538;2022-11-13T03:52:57;10.20;99.90
3542;DHT22;1785;47.388;8.538;2022-11-13T03:55:23;10.20;99.90
3542;DHT22;1785;47.388;8.538;2022-11-13T03:57:50;10.10;99.90
3542;DHT22;1785;47.388;8.538;2022-11-13T04:00:17;10.10;99.90
3542;DHT22;1785;47.388;8.538;2022-11-13T04:02:43;10.00;99.90
3542;DHT22;1785;47.388;8.538;2022-11-13T04:05:10;9.90;99.90
3542;DHT22;1785;47.388;8.538;2022-11-13T04:07:37;9.90;99.90
3542;DHT22;1785;47.388;8.538;2022-11-13T04:10:05;10.10;99.90
3542;DHT22;1785;47.388;8.538;2022-11-13T04:12:32;10.20;99.90
3542;DHT22;1785;47.388;8.538;2022-11-13T04:14:58;10.10;99.90
3542;DHT22;1785;47.388;8.538;2022-11-13T04:17:25;10.10;99.90
3542;DHT22;1785;47.388;8.538;2022-11-13T04:19:51;10.10;99.90
3542;DHT22;1785;47.388;8.538;2022-11-13T04:22:18;9.90;99.90
3542;DHT22;1785;47.388;8.538;2022-11-13T04:24:45;10.00;99.90
3542;DHT22;1785;47.388;8.538;2022-11-13T04:27:12;10.20;99.90
3542;DHT22;1785;47.388;8.538;2022-11-13T04:29:38;10.00;99.90
3542;DHT22;1785;47.388;8.538;2022-11-13T04:32:05;9.70;99.90
3542;DHT22;1785;47.388;8.538;2022-11-13T04:34:32;9.70;99.90
3542;DHT22;1785;47.388;8.538;2022-11-13T04:36:59;9.80;99.90
3542;DHT22;1785;47.388;8.538;2022-11-13T04:39:26;9.80;99.90
3542;DHT22;1785;47.388;8.538;2022-11-13T04:41:53;9.80;99.90
3542;DHT22;1785;47.388;8.538;2022-11-13T04:44:37;9.90;99.90
3542;DHT22;1785;47.388;8.538;2022-11-13T04:47:04;10.00;99.90
3542;DHT22;1785;47.388;8.538;2022-11-13T04:49:37;10.10;99.90
3542;DHT22;1785;47.388;8.538;2022-11-13T04:52:04;10.20;99.90
3542;DHT22;1785;47.388;8.538;2022-11-13T04:54:31;10.30;99.90
3542;DHT22;1785;47.388;8.538;2022-11-13T04:57:01;10.20;99.90
3542;DHT22;1785;47.388;8.538;2022-11-13T04:59:28;10.20;99.90
3542;DHT22;1785;47.388;8.538;2022-11-13T05:01:54;10.10;99.90
3542;DHT22;1785;47.388;8.538;2022-11-13T05:04:21;10.10;99.90
3542;DHT22;1785;47.388;8.538;2022-11-13T05:06:48;10.00;99.90
3542;DHT22;1785;47.388;8.538;2022-11-13T05:09:15;10.00;99.90
3542;DHT22;1785;47.388;8.538;2022-11-13T05:11:42;10.10;99.90
3542;DHT22;1785;47.388;8.538;2022-11-13T05:14:11;10.40;99.90
3542;DHT22;1785;47.388;8.538;2022-11-13T05:16:38;10.30;99.90
3542;DHT22;1785;47.388;8.538;2022-11-13T05:19:05;10.30;99.90
3542;DHT22;1785;47.388;8.538;2022-11-13T05:21:32;10.30;99.90
3542;DHT22;1785;47.388;8.538;2022-11-13T05:23:59;10.10;99.90
3542;DHT22;1785;47.388;8.538;2022-11-13T05:26:26;10.00;99.90
3542;DHT22;1785;47.388;8.538;2022-11-13T05:28:56;10.00;99.90
3542;DHT22;1785;47.388;8.538;2022-11-13T05:31:24;10.10;99.90
3542;DHT22;1785;47.388;8.538;2022-11-13T05:33:51;10.00;99.90
3542;DHT22;1785;47.388;8.538;2022-11-13T05:36:18;9.80;99.90
3542;DHT22;1785;47.388;8.538;2022-11-13T05:38:45;10.10;99.90
3542;DHT22;1785;47.388;8.538;2022-11-13T05:41:13;10.20;99.90
3542;DHT22;1785;47.388;8.538;2022-11-13T05:43:40;10.20;99.90
3542;DHT22;1785;47.388;8.538;2022-11-13T05:46:09;10.20;99.90
3542;DHT22;1785;47.388;8.538;2022-11-13T05:48:37;10.10;99.90
3542;DHT22;1785;47.388;8.538;2022-11-13T05:51:06;10.20;99.90
3542;DHT22;1785;47.388;8.538;2022-11-13T05:53:33;10.30;99.90
3542;DHT22;1785;47.388;8.538;2022-11-13T05:56:00;10.40;99.90
3542;DHT22;1785;47.388;8.538;2022-11-13T05:58:28;10.20;99.90
3542;DHT22;1785;47.388;8.538;2022-11-13T06:01:04;9.80;99.90
3542;DHT22;1785;47.388;8.538;2022-11-13T06:03:31;9.80;99.90
3542;DHT22;1785;47.388;8.538;2022-11-13T06:05:58;9.80;99.90
3542;DHT22;1785;47.388;8.538;2022-11-13T06:08:25;10.00;99.90
3542;DHT22;1785;47.388;8.538;2022-11-13T06:10:51;10.00;99.90
3542;DHT22;1785;47.388;8.538;2022-11-13T06:13:18;10.00;99.90
3542;DHT22;1785;47.388;8.538;2022-11-13T06:15:45;10.10;99.90
3542;DHT22;1785;47.388;8.538;2022-11-13T06:18:12;10.10;99.90
3542;DHT22;1785;47.388;8.538;2022-11-13T06:20:39;10.20;99.90
3542;DHT22;1785;47.388;8.538;2022-11-13T06:23:06;10.40;99.90
3542;DHT22;1785;47.388;8.538;2022-11-13T06:25:33;10.30;99.90
3542;DHT22;1785;47.388;8.538;2022-11-13T06:28:00;10.10;99.90
3542;DHT22;1785;47.388;8.538;2022-11-13T06:30:26;10.20;99.90
3542;DHT22;1785;47.388;8.538;2022-11-13T06:32:53;10.10;99.90
3542;DHT22;1785;47.388;8.538;2022-11-13T06:35:20;10.10;99.90
3542;DHT22;1785;47.388;8.538;2022-11-13T06:37:46;10.20;99.90
3542;DHT22;1785;47.388;8.538;2022-11-13T06:40:14;10.30;99.90
3542;DHT22;1785;47.388;8.538;2022-11-13T06:42:40;10.30;99.90
3542;DHT22;1785;47.388;8.538;2022-11-13T06:45:08;10.30;99.90
3542;DHT22;1785;47.388;8.538;2022-11-13T06:47:34;10.30;99.90
3542;DHT22;1785;47.388;8.538;2022-11-13T06:50:01;10.30;99.90
3542;DHT22;1785;47.388;8.538;2022-11-13T06:52:27;10.30;99.90
3542;DHT22;1785;47.388;8.538;2022-11-13T06:54:54;10.30;99.90
3542;DHT22;1785;47.388;8.538;2022-11-13T06:57:22;10.40;99.90
3542;DHT22;1785;47.388;8.538;2022-11-13T06:59:49;10.40;99.90
3542;DHT22;1785;47.388;8.538;2022-11-13T07:02:15;10.40;99.90
3542;DHT22;1785;47.388;8.538;2022-11-13T07:04:42;10.40;99.90
3542;DHT22;1785;47.388;8.538;2022-11-13T07:07:09;10.40;99.90
3542;DHT22;1785;47.388;8.538;2022-11-13T07:09:35;10.30;99.90
3542;DHT22;1785;47.388;8.538;2022-11-13T07:12:02;10.40;99.90
3542;DHT22;1785;47.388;8.538;2022-11-13T07:14:30;10.50;99.90
3542;DHT22;1785;47.388;8.538;2022-11-13T07:16:57;10.40;99.90
3542;DHT22;1785;47.388;8.538;2022-11-13T07:19:23;10.50;99.90
3542;DHT22;1785;47.388;8.538;2022-11-13T07:21:50;10.50;99.90
3542;DHT22;1785;47.388;8.538;2022-11-13T07:24:16;10.30;99.90
3542;DHT22;1785;47.388;8.538;2022-11-13T07:26:43;10.10;99.90
3542;DHT22;1785;47.388;8.538;2022-11-13T07:29:10;10.30;99.90
3542;DHT22;1785;47.388;8.538;2022-11-13T07:31:38;10.10;99.90
3542;DHT22;1785;47.388;8.538;2022-11-13T07:34:05;10.00;99.90
3542;DHT22;1785;47.388;8.538;2022-11-13T07:36:31;9.90;99.90
3542;DHT22;1785;47.388;8.538;2022-11-13T07:38:59;10.00;99.90
3542;DHT22;1785;47.388;8.538;2022-11-13T07:41:25;10.00;99.90
3542;DHT22;1785;47.388;8.538;2022-11-13T07:43:52;9.90;99.90
3542;DHT22;1785;47.388;8.538;2022-11-13T07:46:18;9.90;99.90
3542;DHT22;1785;47.388;8.538;2022-11-13T07:48:45;10.00;99.90
3542;DHT22;1785;47.388;8.538;2022-11-13T07:51:13;10.00;99.90
3542;DHT22;1785;47.388;8.538;2022-11-13T07:53:39;10.10;99.90
3542;DHT22;1785;47.388;8.538;2022-11-13T07:56:06;10.20;99.90
3542;DHT22;1785;47.388;8.538;2022-11-13T07:58:34;10.10;99.90
3542;DHT22;1785;47.388;8.538;2022-11-13T08:01:02;10.10;99.90
3542;DHT22;1785;47.388;8.538;2022-11-13T08:03:29;10.10;99.90
3542;DHT22;1785;47.388;8.538;2022-11-13T08:06:00;10.30;99.90
3542;DHT22;1785;47.388;8.538;2022-11-13T08:08:27;10.20;99.90
3542;DHT22;1785;47.388;8.538;2022-11-13T08:10:54;10.00;99.90
3542;DHT22;1785;47.388;8.538;2022-11-13T08:13:21;10.00;99.90
3542;DHT22;1785;47.388;8.538;2022-11-13T08:15:47;9.90;99.90
3542;DHT22;1785;47.388;8.538;2022-11-13T08:18:14;9.80;99.90
3542;DHT22;1785;47.388;8.538;2022-11-13T08:20:41;9.80;99.90
3542;DHT22;1785;47.388;8.538;2022-11-13T08:23:08;9.90;99.90
3542;DHT22;1785;47.388;8.538;2022-11-13T08:25:35;10.00;99.90
3542;DHT22;1785;47.388;8.538;2022-11-13T08:28:02;10.10;99.90
3542;DHT22;1785;47.388;8.538;2022-11-13T08:30:28;10.10;99.90
3542;DHT22;1785;47.388;8.538;2022-11-13T08:32:56;10.10;99.90
3542;DHT22;1785;47.388;8.538;2022-11-13T08:35:23;10.10;99.90
3542;DHT22;1785;47.388;8.538;2022-11-13T08:37:50;10.10;99.90
3542;DHT22;1785;47.388;8.538;2022-11-13T08:40:18;10.20;99.90
3542;DHT22;1785;47.388;8.538;2022-11-13T08:42:45;10.30;99.90
3542;DHT22;1785;47.388;8.538;2022-11-13T08:45:12;10.20;99.90
3542;DHT22;1785;47.388;8.538;2022-11-13T08:47:39;10.10;99.90
3542;DHT22;1785;47.388;8.538;2022-11-13T08:50:07;10.00;99.90
3542;DHT22;1785;47.388;8.538;2022-11-13T08:52:34;10.10;99.90
3542;DHT22;1785;47.388;8.538;2022-11-13T08:55:00;10.20;99.90
3542;DHT22;1785;47.388;8.538;2022-11-13T08:57:28;9.90;99.90
3542;DHT22;1785;47.388;8.538;2022-11-13T08:59:55;10.00;99.90
3542;DHT22;1785;47.388;8.538;2022-11-13T09:02:21;10.00;99.90
3542;DHT22;1785;47.388;8.538;2022-11-13T09:04:47;10.00;99.90
3542;DHT22;1785;47.388;8.538;2022-11-13T09:07:15;10.10;99.90
3542;DHT22;1785;47.388;8.538;2022-11-13T09:09:42;10.10;99.90
3542;DHT22;1785;47.388;8.538;2022-11-13T09:12:08;10.20;99.90
3542;DHT22;1785;47.388;8.538;2022-11-13T09:14:36;10.30;99.90
3542;DHT22;1785;47.388;8.538;2022-11-13T09:17:03;10.20;99.90
3542;DHT22;1785;47.388;8.538;2022-11-13T09:19:29;10.10;99.90
3542;DHT22;1785;47.388;8.538;2022-11-13T09:21:56;10.10;99.90
3542;DHT22;1785;47.388;8.538;2022-11-13T09:24:22;10.20;99.90
3542;DHT22;1785;47.388;8.538;2022-11-13T09:26:49;10.20;99.90
3542;DHT22;1785;47.388;8.538;2022-11-13T09:29:16;10.20;99.90
3542;DHT22;1785;47.388;8.538;2022-11-13T09:31:44;10.10;99.90
3542;DHT22;1785;47.388;8.538;2022-11-13T09:34:11;10.20;99.90
3542;DHT22;1785;47.388;8.538;2022-11-13T09:36:38;10.10;99.90
3542;DHT22;1785;47.388;8.538;2022-11-13T09:39:05;10.10;99.90
3542;DHT22;1785;47.388;8.538;2022-11-13T09:41:36;10.10;99.90
3542;DHT22;1785;47.388;8.538;2022-11-13T09:44:06;10.00;99.90
3542;DHT22;1785;47.388;8.538;2022-11-13T09:46:44;10.00;99.90
3542;DHT22;1785;47.388;8.538;2022-11-13T09:49:15;10.10;99.90
3542;DHT22;1785;47.388;8.538;2022-11-13T09:51:48;10.10;99.90
3542;DHT22;1785;47.388;8.538;2022-11-13T09:54:16;10.20;99.90
3542;DHT22;1785;47.388;8.538;2022-11-13T09:56:56;10.20;99.90
3542;DHT22;1785;47.388;8.538;2022-11-13T09:59:28;10.10;99.90
3542;DHT22;1785;47.388;8.538;2022-11-13T10:02:01;10.00;99.90
3542;DHT22;1785;47.388;8.538;2022-11-13T10:04:38;9.90;99.90
3542;DHT22;1785;47.388;8.538;2022-11-13T10:07:21;10.10;99.90
3542;DHT22;1785;47.388;8.538;2022-11-13T10:12:41;10.20;99.90
3542;DHT22;1785;47.388;8.538;2022-11-13T10:15:10;10.20;99.90
3542;DHT22;1785;47.388;8.538;2022-11-13T10:17:39;10.30;99.90
3542;DHT22;1785;47.388;8.538;2022-11-13T10:20:12;10.40;99.90
3542;DHT22;1785;47.388;8.538;2022-11-13T10:22:44;10.40;99.90
3542;DHT22;1785;47.388;8.538;2022-11-13T10:25:16;10.40;99.90
3542;DHT22;1785;47.388;8.538;2022-11-13T10:27:44;10.40;99.90
3542;DHT22;1785;47.388;8.538;2022-11-13T10:30:16;10.10;99.90
3542;DHT22;1785;47.388;8.538;2022-11-13T10:32:44;10.10;99.90
3542;DHT22;1785;47.388;8.538;2022-11-13T10:35:42;10.20;99.90
3542;DHT22;1785;47.388;8.538;2022-11-13T10:38:19;10.20;99.90
3542;DHT22;1785;47.388;8.538;2022-11-13T10:40:46;10.10;99.90
3542;DHT22;1785;47.388;8.538;2022-11-13T10:43:15;10.40;99.90
3542;DHT22;1785;47.388;8.538;2022-11-13T10:45:42;10.40;99.90
3542;DHT22;1785;47.388;8.538;2022-11-13T10:48:19;10.40;99.90
3542;DHT22;1785;47.388;8.538;2022-11-13T10:50:54;10.50;99.90
3542;DHT22;1785;47.388;8.538;2022-11-13T10:53:24;10.50;99.90
3542;DHT22;1785;47.388;8.538;2022-11-13T10:55:53;10.30;99.90
3542;DHT22;1785;47.388;8.538;2022-11-13T10:58:22;10.20;99.90
3542;DHT22;1785;47.388;8.538;2022-11-13T11:00:50;10.10;99.90
3542;DHT22;1785;47.388;8.538;2022-11-13T11:03:20;10.20;99.90
3542;DHT22;1785;47.388;8.538;2022-11-13T11:05:56;10.30;99.90
3542;DHT22;1785;47.388;8.538;2022-11-13T11:08:27;10.30;99.90
3542;DHT22;1785;47.388;8.538;2022-11-13T11:10:58;10.40;99.90
3542;DHT22;1785;47.388;8.538;2022-11-13T11:13:43;10.40;99.90
3542;DHT22;1785;47.388;8.538;2022-11-13T11:16:15;10.40;99.90
3542;DHT22;1785;47.388;8.538;2022-11-13T11:18:50;10.50;99.90
3542;DHT22;1785;47.388;8.538;2022-11-13T11:21:21;10.60;99.90
3542;DHT22;1785;47.388;8.538;2022-11-13T11:23:53;10.70;99.90
3542;DHT22;1785;47.388;8.538;2022-11-13T11:26:24;10.90;99.90
3542;DHT22;1785;47.388;8.538;2022-11-13T11:29:04;10.90;99.90
3542;DHT22;1785;47.388;8.538;2022-11-13T11:31:38;10.90;99.90
3542;DHT22;1785;47.388;8.538;2022-11-13T11:34:14;10.80;99.90
3542;DHT22;1785;47.388;8.538;2022-11-13T11:36:52;10.60;99.90
3542;DHT22;1785;47.388;8.538;2022-11-13T11:39:28;10.50;99.90
3542;DHT22;1785;47.388;8.538;2022-11-13T11:42:02;10.50;99.90
3542;DHT22;1785;47.388;8.538;2022-11-13T11:44:37;10.70;99.90
3542;DHT22;1785;47.388;8.538;2022-11-13T11:47:13;10.40;99.90
3542;DHT22;1785;47.388;8.538;2022-11-13T11:49:42;10.30;99.90
3542;DHT22;1785;47.388;8.538;2022-11-13T11:52:25;10.40;99.90
3542;DHT22;1785;47.388;8.538;2022-11-13T11:55:01;10.40;99.90
3542;DHT22;1785;47.388;8.538;2022-11-13T11:57:38;10.40;99.90
3542;DHT22;1785;47.388;8.538;2022-11-13T12:00:11;10.50;99.90
3542;DHT22;1785;47.388;8.538;2022-11-13T12:05:39;10.30;99.90
3542;DHT22;1785;47.388;8.538;2022-11-13T12:08:19;10.40;99.90
3542;DHT22;1785;47.388;8.538;2022-11-13T12:10:51;10.30;99.90
3542;DHT22;1785;47.388;8.538;2022-11-13T12:13:28;10.40;99.90
3542;DHT22;1785;47.388;8.538;2022-11-13T12:16:02;10.50;99.90
3542;DHT22;1785;47.388;8.538;2022-11-13T12:18:40;10.50;99.90
3542;DHT22;1785;47.388;8.538;2022-11-13T12:21:23;10.50;99.90
3542;DHT22;1785;47.388;8.538;2022-11-13T12:24:26;10.70;99.90
3542;DHT22;1785;47.388;8.538;2022-11-13T12:27:07;10.60;99.90
3542;DHT22;1785;47.388;8.538;2022-11-13T12:29:45;10.40;99.90
3542;DHT22;1785;47.388;8.538;2022-11-13T12:32:29;10.40;99.90
3542;DHT22;1785;47.388;8.538;2022-11-13T12:35:06;10.40;99.90
3542;DHT22;1785;47.388;8.538;2022-11-13T12:37:41;10.50;99.90
3542;DHT22;1785;47.388;8.538;2022-11-13T12:40:15;10.50;99.90
3542;DHT22;1785;47.388;8.538;2022-11-13T12:42:48;10.70;99.90
3542;DHT22;1785;47.388;8.538;2022-11-13T12:45:21;10.70;99.90
3542;DHT22;1785;47.388;8.538;2022-11-13T12:47:50;10.70;99.90
3542;DHT22;1785;47.388;8.538;2022-11-13T12:50:24;10.60;99.90
3542;DHT22;1785;47.388;8.538;2022-11-13T12:52:59;10.70;99.90
3542;DHT22;1785;47.388;8.538;2022-11-13T12:55:28;10.50;99.90
3542;DHT22;1785;47.388;8.538;2022-11-13T12:58:02;10.50;99.90
3542;DHT22;1785;47.388;8.538;2022-11-13T13:00:33;10.50;99.90
3542;DHT22;1785;47.388;8.538;2022-11-13T13:03:18;10.30;99.90
3542;DHT22;1785;47.388;8.538;2022-11-13T13:06:03;10.30;99.90
3542;DHT22;1785;47.388;8.538;2022-11-13T13:08:55;10.20;99.90
3542;DHT22;1785;47.388;8.538;2022-11-13T13:11:34;10.30;99.90
3542;DHT22;1785;47.388;8.538;2022-11-13T13:14:25;10.50;99.90
3542;DHT22;1785;47.388;8.538;2022-11-13T13:17:04;10.50;99.90
3542;DHT22;1785;47.388;8.538;2022-11-13T13:19:32;10.50;99.90
3542;DHT22;1785;47.388;8.538;2022-11-13T13:21:59;10.40;99.90
3542;DHT22;1785;47.388;8.538;2022-11-13T13:24:31;10.40;99.90
3542;DHT22;1785;47.388;8.538;2022-11-13T13:26:59;10.50;99.90
3542;DHT22;1785;47.388;8.538;2022-11-13T13:29:28;10.60;99.90
3542;DHT22;1785;47.388;8.538;2022-11-13T13:32:03;10.60;99.90
3542;DHT22;1785;47.388;8.538;2022-11-13T13:34:39;10.60;99.90
3542;DHT22;1785;47.388;8.538;2022-11-13T13:37:18;10.40;99.90
3542;DHT22;1785;47.388;8.538;2022-11-13T13:39:55;10.60;99.90
3542;DHT22;1785;47.388;8.538;2022-11-13T13:42:34;10.60;99.90
3542;DHT22;1785;47.388;8.538;2022-11-13T13:45:21;10.50;99.90
3542;DHT22;1785;47.388;8.538;2022-11-13T13:47:53;10.40;99.90
3542;DHT22;1785;47.388;8.538;2022-11-13T13:50:23;10.40;99.90
3542;DHT22;1785;47.388;8.538;2022-11-13T13:52:51;10.40;99.90
3542;DHT22;1785;47.388;8.538;2022-11-13T13:55:26;10.50;99.90
3542;DHT22;1785;47.388;8.538;2022-11-13T13:57:54;10.50;99.90
3542;DHT22;1785;47.388;8.538;2022-11-13T14:00:20;10.60;99.90
3542;DHT22;1785;47.388;8.538;2022-11-13T14:02:48;10.70;99.90
3542;DHT22;1785;47.388;8.538;2022-11-13T14:05:30;10.60;99.90
3542;DHT22;1785;47.388;8.538;2022-11-13T14:07:57;10.50;99.90
3542;DHT22;1785;47.388;8.538;2022-11-13T14:10:24;10.50;99.90
3542;DHT22;1785;47.388;8.538;2022-11-13T14:12:52;10.60;99.90
3542;DHT22;1785;47.388;8.538;2022-11-13T14:15:25;10.70;99.90
3542;DHT22;1785;47.388;8.538;2022-11-13T14:18:02;10.70;99.90
3542;DHT22;1785;47.388;8.538;2022-11-13T14:20:38;10.80;99.90
3542;DHT22;1785;47.388;8.538;2022-11-13T14:23:09;10.80;99.90
3542;DHT22;1785;47.388;8.538;2022-11-13T14:25:36;10.80;99.90
3542;DHT22;1785;47.388;8.538;2022-11-13T14:28:04;10.80;99.90
3542;DHT22;1785;47.388;8.538;2022-11-13T14:30:31;10.80;99.90
3542;DHT22;1785;47.388;8.538;2022-11-13T14:32:59;10.90;99.90
3542;DHT22;1785;47.388;8.538;2022-11-13T14:35:27;11.10;99.90
3542;DHT22;1785;47.388;8.538;2022-11-13T14:37:54;11.00;99.90
3542;DHT22;1785;47.388;8.538;2022-11-13T14:40:22;10.80;99.90
3542;DHT22;1785;47.388;8.538;2022-11-13T14:42:52;10.40;99.90
3542;DHT22;1785;47.388;8.538;2022-11-13T14:45:21;9.90;99.90
3542;DHT22;1785;47.388;8.538;2022-11-13T14:47:57;9.60;99.90
3542;DHT22;1785;47.388;8.538;2022-11-13T14:50:26;9.50;99.90
3542;DHT22;1785;47.388;8.538;2022-11-13T14:52:58;9.60;99.90
3542;DHT22;1785;47.388;8.538;2022-11-13T14:55:27;9.20;99.90
3542;DHT22;1785;47.388;8.538;2022-11-13T14:57:54;9.20;99.90
3542;DHT22;1785;47.388;8.538;2022-11-13T15:00:27;9.60;99.90
3542;DHT22;1785;47.388;8.538;2022-11-13T15:02:55;9.80;99.90
3542;DHT22;1785;47.388;8.538;2022-11-13T15:05:21;9.80;99.90
3542;DHT22;1785;47.388;8.538;2022-11-13T15:07:50;10.00;99.90
3542;DHT22;1785;47.388;8.538;2022-11-13T15:10:20;10.30;99.90
3542;DHT22;1785;47.388;8.538;2022-11-13T15:12:47;10.20;99.90
3542;DHT22;1785;47.388;8.538;2022-11-13T15:15:16;10.10;99.90
3542;DHT22;1785;47.388;8.538;2022-11-13T15:17:44;10.30;99.90
3542;DHT22;1785;47.388;8.538;2022-11-13T15:20:14;10.30;99.90
3542;DHT22;1785;47.388;8.538;2022-11-13T15:22:41;10.40;99.90
3542;DHT22;1785;47.388;8.538;2022-11-13T15:25:12;10.50;99.90
3542;DHT22;1785;47.388;8.538;2022-11-13T15:27:39;10.60;99.90
3542;DHT22;1785;47.388;8.538;2022-11-13T15:30:13;10.60;99.90
3542;DHT22;1785;47.388;8.538;2022-11-13T15:32:40;10.80;99.90
3542;DHT22;1785;47.388;8.538;2022-11-13T15:35:14;10.90;99.90
3542;DHT22;1785;47.388;8.538;2022-11-13T15:37:41;10.90;99.90
3542;DHT22;1785;47.388;8.538;2022-11-13T15:40:09;10.90;99.90
3542;DHT22;1785;47.388;8.538;2022-11-13T15:42:36;10.90;99.90
3542;DHT22;1785;47.388;8.538;2022-11-13T15:45:03;10.90;99.90
3542;DHT22;1785;47.388;8.538;2022-11-13T15:47:34;11.00;99.90
3542;DHT22;1785;47.388;8.538;2022-11-13T15:50:02;11.10;99.90
3542;DHT22;1785;47.388;8.538;2022-11-13T15:52:34;10.90;99.90
3542;DHT22;1785;47.388;8.538;2022-11-13T15:55:02;10.80;99.90
3542;DHT22;1785;47.388;8.538;2022-11-13T15:57:30;10.50;99.90
3542;DHT22;1785;47.388;8.538;2022-11-13T15:59:57;10.40;99.90
3542;DHT22;1785;47.388;8.538;2022-11-13T16:02:23;10.70;99.90
3542;DHT22;1785;47.388;8.538;2022-11-13T16:04:49;10.80;99.90
3542;DHT22;1785;47.388;8.538;2022-11-13T16:07:21;10.90;99.90
3542;DHT22;1785;47.388;8.538;2022-11-13T16:09:51;10.80;99.90
3542;DHT22;1785;47.388;8.538;2022-11-13T16:12:18;10.70;99.90
3542;DHT22;1785;47.388;8.538;2022-11-13T16:14:45;10.70;99.90
3542;DHT22;1785;47.388;8.538;2022-11-13T16:17:14;10.80;99.90
3542;DHT22;1785;47.388;8.538;2022-11-13T16:19:46;10.90;99.90
3542;DHT22;1785;47.388;8.538;2022-11-13T16:22:17;10.80;99.90